METAR Data
IDs: Format: Raw Decoded Include TAF

Data at: 2122 UTC 22 Sep 2020

KLUM 222115Z AUTO 20006KT 10SM CLR 26/14 A3002 RMK AO2 T02560135
KLUM 222055Z AUTO 15005KT 10SM CLR 26/14 A3003 RMK AO2 T02560136
KLUM 222035Z AUTO 22006KT 10SM CLR 26/14 A3004 RMK AO2 T02550135
KLUM 222015Z AUTO 14006KT 10SM CLR 26/13 A3004 RMK AO2 T02550132
KLUM 221955Z AUTO 19005KT 10SM CLR 25/13 A3005 RMK AO2 T02530132
KLUM 221935Z AUTO 15005KT 10SM CLR 25/13 A3005 RMK AO2 T02490134
KLUM 221915Z AUTO 17004KT 10SM CLR 25/13 A3006 RMK AO2 T02480133
KLUM 221855Z AUTO 14004KT 10SM CLR 24/13 A3007 RMK AO2 T02430133
KLUM 221835Z AUTO 14006KT 10SM CLR 24/14 A3008 RMK AO2 T02430137
KLUM 221815Z AUTO 13003KT 10SM CLR 24/14 A3008 RMK AO2 T02370137
KLUM 221755Z AUTO 12005KT 10SM CLR 24/14 A3009 RMK AO2 T02350142 10235 20101
KLUM 221735Z AUTO 15005KT 10SM CLR 23/14 A3010 RMK AO2 T02270139
KLUM 221715Z AUTO 00000KT 10SM CLR 22/14 A3011 RMK AO2 T02220137
KLUM 221655Z AUTO 14003KT 7SM CLR 21/14 A3011 RMK AO2 T02110136
KLUM 221635Z AUTO 00000KT 10SM CLR 21/14 A3011 RMK AO2 T02060136
KLUM 221615Z AUTO 00000KT 10SM CLR 20/14 A3012 RMK AO2 T01990135
KLUM 221555Z AUTO 00000KT 10SM CLR 19/14 A3013 RMK AO2 T01920136
KLUM 221535Z AUTO 22004KT 10SM CLR 19/13 A3013 RMK AO2 T01850134
KLUM 221515Z AUTO 00000KT 10SM CLR 18/13 A3013 RMK AO2 T01820134
KLUM 221455Z AUTO 20003KT 10SM CLR 18/14 A3014 RMK AO2 T01750135
KLUM 221435Z AUTO 00000KT 10SM CLR 16/14 A3014 RMK AO2 T01640141
KLUM 221415Z AUTO 00000KT 10SM CLR 15/14 A3013 RMK AO2 T01540136
KLUM 221355Z AUTO 00000KT 10SM CLR 14/13 A3013 RMK AO2 T01410131
KLUM 221335Z AUTO 00000KT 10SM CLR 13/13 A3013 RMK AO2 T01320125
KLUM 221315Z AUTO 00000KT 7SM CLR 12/12 A3013 RMK AO2 T01210118
KLUM 221255Z AUTO 00000KT 7SM CLR 11/11 A3013 RMK AO2 T01120110
KLUM 221235Z AUTO 08003KT 7SM CLR 11/11 A3013 RMK AO2 T01070106
KLUM 221215Z AUTO 00000KT 7SM CLR 10/10 A3013 RMK AO2 T01030101
KLUM 221155Z AUTO 00000KT 7SM CLR 11/10 A3012 RMK AO2 T01050103 10150 20100
KLUM 221135Z AUTO 00000KT 10SM CLR 11/10 A3012 RMK AO2 T01050102
KLUM 221115Z AUTO 07003KT 10SM CLR 11/10 A3012 RMK AO2 T01090104
KLUM 221055Z AUTO 07003KT 10SM CLR 12/11 A3011 RMK AO2 T01150110
KLUM 221035Z AUTO 00000KT 10SM CLR 13/12 A3012 RMK AO2 T01260117
KLUM 221015Z AUTO 14003KT 10SM CLR 12/11 A3011 RMK AO2 T01220112
KLUM 220955Z AUTO 00000KT 10SM CLR 13/12 A3011 RMK AO2 T01250115
KLUM 220935Z AUTO 00000KT 10SM CLR 12/11 A3011 RMK AO2 T01200112
KLUM 220915Z AUTO 00000KT 10SM CLR 13/12 A3011 RMK AO2 T01250115
KLUM 220855Z AUTO 00000KT 10SM CLR 13/12 A3011 RMK AO2 T01340121
KLUM 220835Z AUTO 00000KT 10SM CLR 13/12 A3011 RMK AO2 T01340120
KLUM 220815Z AUTO 00000KT 10SM CLR 14/12 A3012 RMK AO2 T01360120
KLUM 220755Z AUTO 16003KT 10SM CLR 14/12 A3011 RMK AO2 LTG DSNT SE T01380120
KLUM 220735Z AUTO 00000KT 10SM CLR 15/12 A3012 RMK AO2 T01470122
KLUM 220715Z AUTO 18004KT 10SM CLR 15/12 A3011 RMK AO2 T01490122
KLUM 220655Z AUTO 16005KT 10SM CLR 14/12 A3011 RMK AO2 T01420122
KLUM 220635Z AUTO 15004KT 10SM CLR 13/12 A3011 RMK AO2 T01330119
KLUM 220615Z AUTO 00000KT 10SM CLR 12/11 A3012 RMK AO2 T01210113
KLUM 220555Z AUTO 10004KT 10SM CLR 13/12 A3012 RMK AO2 T01270118 10187 20122 402390119
KLUM 220535Z AUTO 09005KT 10SM CLR 13/12 A3012 RMK AO2 T01270118
KLUM 220515Z AUTO 10003KT 10SM CLR 13/12 A3012 RMK AO2 T01300118
KLUM 220455Z AUTO 09005KT 10SM CLR 13/12 A3012 RMK AO2 T01270118
KLUM 220435Z AUTO 09004KT 10SM CLR 12/12 A3012 RMK AO2 T01230115
KLUM 220415Z AUTO 10003KT 10SM CLR 13/12 A3011 RMK AO2 T01330120
KLUM 220355Z AUTO 10005KT 10SM CLR 13/12 A3011 RMK AO2 T01330120
KLUM 220335Z AUTO 09004KT 10SM CLR 13/12 A3011 RMK AO2 T01320120
KLUM 220315Z AUTO 11003KT 10SM CLR 14/12 A3011 RMK AO2 T01390119
KLUM 220255Z AUTO 11004KT 10SM CLR 14/12 A3011 RMK AO2 T01400120
KLUM 220235Z AUTO 09003KT 10SM CLR 14/12 A3011 RMK AO2 T01420117
KLUM 220215Z AUTO 11004KT 10SM CLR 15/12 A3011 RMK AO2 T01500120
KLUM 220155Z AUTO 12005KT 10SM CLR 15/12 A3011 RMK AO2 T01500119
KLUM 220135Z AUTO 00000KT 10SM CLR 15/12 A3011 RMK AO2 T01520120
KLUM 220115Z AUTO 00000KT 10SM CLR 15/12 A3011 RMK AO2 T01540121
KLUM 220055Z AUTO 14004KT 10SM CLR 17/12 A3010 RMK AO2 T01660124
KLUM 220035Z AUTO 15004KT 10SM CLR 17/12 A3010 RMK AO2 T01680122
KLUM 220015Z AUTO 14003KT 10SM CLR 18/12 A3009 RMK AO2 T01780122
KLUM 212355Z AUTO 14004KT 10SM CLR 19/12 A3009 RMK AO2 T01880123 10239 20188
KLUM 212335Z AUTO 16006KT 10SM CLR 21/12 A3008 RMK AO2 LTG DSNT NE T02050124
KLUM 212315Z AUTO 16005KT 10SM CLR 21/12 A3008 RMK AO2 LTG DSNT E T02110121
KLUM 212255Z AUTO 17006KT 10SM CLR 22/12 A3008 RMK AO2 LTG DSNT NE T02150118
KLUM 212235Z AUTO 17007KT 10SM TS SCT110 22/11 A3008 RMK AO2 LTG DSNT N THRU E T02180114
KLUM 212215Z AUTO 16011G17KT 10SM SCT110 23/11 A3008 RMK AO2 LTG DSNT N T02250109
KLUM 212155Z AUTO 18013G17KT 10SM CLR 23/11 A3008 RMK AO2 LTG DSNT NE T02260106
KLUM 212135Z AUTO 16013G19KT 10SM CLR 22/10 A3008 RMK AO2 LTG DSNT W THRU NE T02200104
KLUM 212115Z AUTO 16015G19KT 10SM TS SCT110 24/10 A3008 RMK AO2 LTG DSNT N AND NE T02370104
KLUM 212055Z AUTO 17014G17KT 10SM TS BKN110 23/11 A3009 RMK AO2 LTG DSNT N AND NW T02340106
KLUM 212035Z AUTO 20010G17KT 10SM TS SCT110 24/11 A3009 RMK AO2 LTG DSNT W THRU N T02350111
KLUM 212015Z AUTO 16015KT 10SM VCTS SCT110 24/11 A3008 RMK AO2 LTG DSNT W AND NW T02350113
KLUM 211955Z AUTO 15010G19KT 10SM VCTS CLR 23/11 A3009 RMK AO2 LTG DSNT W T02280107
KLUM 211935Z AUTO 16011KT 10SM VCTS CLR 23/11 A3011 RMK AO2 LTG DSNT W T02300108
KLUM 211915Z AUTO 18009KT 10SM CLR 22/10 A3011 RMK AO2 T02220103
KLUM 211855Z AUTO 19011G15KT 10SM CLR 23/10 A3012 RMK AO2 T02260103
KLUM 211835Z AUTO 16014G18KT 10SM CLR 22/10 A3013 RMK AO2 T02150102
KLUM 211815Z AUTO 16012KT 10SM CLR 20/10 A3014 RMK AO2 T02020098
KLUM 211755Z AUTO 18010G18KT 10SM CLR 20/10 A3015 RMK AO2 LTG DSNT SW T02030095 10210 20119
KLUM 211735Z AUTO 17011G20KT 10SM CLR 21/09 A3015 RMK AO2 T02070094
KLUM 211715Z AUTO 18009KT 150V210 10SM CLR 20/09 A3016 RMK AO2 T02020093
KLUM 211655Z AUTO 17011G17KT 100V190 10SM CLR 20/09 A3015 RMK AO2 T02010091
KLUM 211635Z AUTO 17010G14KT 140V200 10SM CLR 19/09 A3018 RMK AO2 T01900086
KLUM 211615Z AUTO 17007KT 10SM CLR 18/08 A3018 RMK AO2 T01810084
KLUM 211555Z AUTO 16011G20KT 130V210 10SM CLR 18/08 A3018 RMK AO2 LTG DSNT SW T01750081
KLUM 211535Z AUTO 18012G16KT 10SM CLR 17/08 A3019 RMK AO2 T01670078
KLUM 211515Z AUTO 14010KT 10SM CLR 17/08 A3020 RMK AO2 T01650076
KLUM 211455Z AUTO 17010G14KT 10SM CLR 16/07 A3020 RMK AO2 T01580073
KLUM 211435Z AUTO 17008KT 120V190 10SM CLR 15/07 A3020 RMK AO2 T01500071
KLUM 211415Z AUTO 16005KT 10SM CLR 14/07 A3020 RMK AO2 T01440068
KLUM 211355Z AUTO 15008KT 120V230 10SM CLR 14/07 A3020 RMK AO2 T01440065
KLUM 211335Z AUTO 15007KT 10SM CLR 14/06 A3020 RMK AO2 T01370062
KLUM 211315Z AUTO 15006KT 10SM CLR 13/06 A3020 RMK AO2 T01320061
KLUM 211255Z AUTO 13004KT 10SM CLR 13/06 A3020 RMK AO2 T01250057
KLUM 211235Z AUTO 10003KT 10SM CLR 12/06 A3020 RMK AO2 T01200055
KLUM 211215Z AUTO 12004KT 10SM CLR 12/05 A3020 RMK AO2 T01190052
KLUM 211155Z AUTO 14004KT 10SM CLR 12/05 A3020 RMK AO2 T01210051 10147 20120
KLUM 211135Z AUTO 15005KT 10SM CLR 12/05 A3020 RMK AO2 T01210050
KLUM 211115Z AUTO 14006KT 10SM CLR 13/05 A3020 RMK AO2 T01250049
KLUM 211055Z AUTO 14004KT 10SM CLR 13/05 A3020 RMK AO2 T01250048
KLUM 211035Z AUTO 14005KT 10SM CLR 13/05 A3020 RMK AO2 T01280047
KLUM 211015Z AUTO 15005KT 10SM SCT070 13/05 A3020 RMK AO2 T01300046
KLUM 210955Z AUTO 15006KT 10SM CLR 13/05 A3021 RMK AO2 T01300045
KLUM 210935Z AUTO 16007KT 10SM CLR 14/05 A3020 RMK AO2 T01350045